sensor_id;sensor_type;location;lat;lon;timestamp;temperature;humidity
54264;DHT22;40178;53.042;6.406;2023-02-15T00:01:17;0.10;99.90
54264;DHT22;40178;53.042;6.406;2023-02-15T00:03:43;0.10;99.90
54264;DHT22;40178;53.042;6.406;2023-02-15T00:06:09;0.10;99.90
54264;DHT22;40178;53.042;6.406;2023-02-15T00:08:34;0.00;99.90
54264;DHT22;40178;53.042;6.406;2023-02-15T00:11:05;0.10;99.90
54264;DHT22;40178;53.042;6.406;2023-02-15T00:13:31;0.10;99.90
54264;DHT22;40178;53.042;6.406;2023-02-15T00:16:03;0.10;99.90
54264;DHT22;40178;53.042;6.406;2023-02-15T00:18:30;0.10;99.90
54264;DHT22;40178;53.042;6.406;2023-02-15T00:20:56;0.20;99.90
54264;DHT22;40178;53.042;6.406;2023-02-15T00:23:21;0.20;99.90
54264;DHT22;40178;53.042;6.406;2023-02-15T00:25:47;0.20;99.90
54264;DHT22;40178;53.042;6.406;2023-02-15T00:28:13;0.20;99.90
54264;DHT22;40178;53.042;6.406;2023-02-15T00:30:38;0.20;99.90
54264;DHT22;40178;53.042;6.406;2023-02-15T00:33:04;0.10;99.90
54264;DHT22;40178;53.042;6.406;2023-02-15T00:35:29;0.00;99.90
54264;DHT22;40178;53.042;6.406;2023-02-15T00:37:56;0.00;99.90
54264;DHT22;40178;53.042;6.406;2023-02-15T00:40:21;0.00;99.90
54264;DHT22;40178;53.042;6.406;2023-02-15T00:42:47;0.10;99.90
54264;DHT22;40178;53.042;6.406;2023-02-15T00:45:13;0.10;99.90
54264;DHT22;40178;53.042;6.406;2023-02-15T00:47:39;0.10;99.90
54264;DHT22;40178;53.042;6.406;2023-02-15T00:50:05;0.00;99.90
54264;DHT22;40178;53.042;6.406;2023-02-15T00:52:31;0.10;99.90
54264;DHT22;40178;53.042;6.406;2023-02-15T00:54:56;0.00;99.90
54264;DHT22;40178;53.042;6.406;2023-02-15T00:57:22;0.00;99.90
54264;DHT22;40178;53.042;6.406;2023-02-15T00:59:47;0.10;99.90
54264;DHT22;40178;53.042;6.406;2023-02-15T01:02:13;0.20;99.90
54264;DHT22;40178;53.042;6.406;2023-02-15T01:04:39;0.10;99.90
54264;DHT22;40178;53.042;6.406;2023-02-15T01:07:04;0.00;99.90
54264;DHT22;40178;53.042;6.406;2023-02-15T01:09:30;0.00;99.90
54264;DHT22;40178;53.042;6.406;2023-02-15T01:11:56;0.00;99.90
54264;DHT22;40178;53.042;6.406;2023-02-15T01:14:21;0.00;99.90
54264;DHT22;40178;53.042;6.406;2023-02-15T01:16:47;-0.10;99.90
54264;DHT22;40178;53.042;6.406;2023-02-15T01:19:13;-0.20;99.90
54264;DHT22;40178;53.042;6.406;2023-02-15T01:21:38;-0.20;99.90
54264;DHT22;40178;53.042;6.406;2023-02-15T01:24:14;-0.20;99.90
54264;DHT22;40178;53.042;6.406;2023-02-15T01:26:39;-0.20;99.90
54264;DHT22;40178;53.042;6.406;2023-02-15T01:29:05;-0.20;99.90
54264;DHT22;40178;53.042;6.406;2023-02-15T01:31:31;-0.20;99.90
54264;DHT22;40178;53.042;6.406;2023-02-15T01:33:56;-0.30;99.90
54264;DHT22;40178;53.042;6.406;2023-02-15T01:36:22;-0.30;99.90
54264;DHT22;40178;53.042;6.406;2023-02-15T01:38:47;-0.30;99.90
54264;DHT22;40178;53.042;6.406;2023-02-15T01:41:14;-0.30;99.90
54264;DHT22;40178;53.042;6.406;2023-02-15T01:43:59;-0.20;99.90
54264;DHT22;40178;53.042;6.406;2023-02-15T01:46:50;-0.20;99.90
54264;DHT22;40178;53.042;6.406;2023-02-15T01:49:19;-0.20;99.90
54264;DHT22;40178;53.042;6.406;2023-02-15T01:51:47;-0.30;99.90
54264;DHT22;40178;53.042;6.406;2023-02-15T01:54:25;-0.40;99.90
54264;DHT22;40178;53.042;6.406;2023-02-15T01:56:52;-0.40;99.90
54264;DHT22;40178;53.042;6.406;2023-02-15T01:59:20;-0.30;99.90
54264;DHT22;40178;53.042;6.406;2023-02-15T02:01:47;-0.40;99.90
54264;DHT22;40178;53.042;6.406;2023-02-15T02:04:24;-0.60;99.90
54264;DHT22;40178;53.042;6.406;2023-02-15T02:06:51;-0.50;99.90
54264;DHT22;40178;53.042;6.406;2023-02-15T02:09:17;-0.50;99.90
54264;DHT22;40178;53.042;6.406;2023-02-15T02:11:45;-0.50;99.90
54264;DHT22;40178;53.042;6.406;2023-02-15T02:14:11;-0.40;99.90
54264;DHT22;40178;53.042;6.406;2023-02-15T02:16:55;-0.50;99.90
54264;DHT22;40178;53.042;6.406;2023-02-15T02:20:00;-0.60;99.90
54264;DHT22;40178;53.042;6.406;2023-02-15T02:22:57;-0.60;99.90
54264;DHT22;40178;53.042;6.406;2023-02-15T02:28:50;-0.50;99.90
54264;DHT22;40178;53.042;6.406;2023-02-15T02:34:29;-0.50;99.90
54264;DHT22;40178;53.042;6.406;2023-02-15T02:39:49;-0.30;99.90
54264;DHT22;40178;53.042;6.406;2023-02-15T02:42:18;-0.30;99.90
54264;DHT22;40178;53.042;6.406;2023-02-15T02:44:51;-0.40;99.90
54264;DHT22;40178;53.042;6.406;2023-02-15T02:47:41;-0.50;99.90
54264;DHT22;40178;53.042;6.406;2023-02-15T02:50:13;-0.50;99.90
54264;DHT22;40178;53.042;6.406;2023-02-15T02:52:42;-0.60;99.90
54264;DHT22;40178;53.042;6.406;2023-02-15T02:58:13;-1.40;99.90
54264;DHT22;40178;53.042;6.406;2023-02-15T03:00:54;-0.70;99.90
54264;DHT22;40178;53.042;6.406;2023-02-15T03:06:51;-0.50;99.90
54264;DHT22;40178;53.042;6.406;2023-02-15T03:09:29;-0.40;99.90
54264;DHT22;40178;53.042;6.406;2023-02-15T03:12:08;-0.60;99.90
54264;DHT22;40178;53.042;6.406;2023-02-15T03:14:34;-0.60;99.90
54264;DHT22;40178;53.042;6.406;2023-02-15T03:17:01;-0.60;99.90
54264;DHT22;40178;53.042;6.406;2023-02-15T03:19:30;-0.70;99.90
54264;DHT22;40178;53.042;6.406;2023-02-15T03:22:04;-0.70;99.90
54264;DHT22;40178;53.042;6.406;2023-02-15T03:24:51;-0.70;99.90
54264;DHT22;40178;53.042;6.406;2023-02-15T03:27:22;-0.70;99.90
54264;DHT22;40178;53.042;6.406;2023-02-15T03:29:53;-0.80;99.90
54264;DHT22;40178;53.042;6.406;2023-02-15T03:32:20;-0.60;99.90
54264;DHT22;40178;53.042;6.406;2023-02-15T03:34:47;-0.60;99.90
54264;DHT22;40178;53.042;6.406;2023-02-15T03:37:30;-0.60;99.90
54264;DHT22;40178;53.042;6.406;2023-02-15T03:40:07;-0.60;99.90
54264;DHT22;40178;53.042;6.406;2023-02-15T03:43:17;-0.70;99.90
54264;DHT22;40178;53.042;6.406;2023-02-15T03:45:47;-0.60;99.90
54264;DHT22;40178;53.042;6.406;2023-02-15T03:48:40;-0.50;99.90
54264;DHT22;40178;53.042;6.406;2023-02-15T03:51:12;-0.50;99.90
54264;DHT22;40178;53.042;6.406;2023-02-15T03:54:06;-0.60;99.90
54264;DHT22;40178;53.042;6.406;2023-02-15T03:56:38;-0.60;99.90
54264;DHT22;40178;53.042;6.406;2023-02-15T03:59:05;-0.50;99.90
54264;DHT22;40178;53.042;6.406;2023-02-15T04:02:10;-0.60;99.90
54264;DHT22;40178;53.042;6.406;2023-02-15T04:04:41;-0.50;99.90
54264;DHT22;40178;53.042;6.406;2023-02-15T04:07:08;-0.60;99.90
54264;DHT22;40178;53.042;6.406;2023-02-15T04:09:34;-0.70;99.90
54264;DHT22;40178;53.042;6.406;2023-02-15T04:12:18;-0.70;99.90
54264;DHT22;40178;53.042;6.406;2023-02-15T04:14:44;-0.60;99.90
54264;DHT22;40178;53.042;6.406;2023-02-15T04:17:28;-0.70;99.90
54264;DHT22;40178;53.042;6.406;2023-02-15T04:19:54;-0.80;99.90
54264;DHT22;40178;53.042;6.406;2023-02-15T04:22:38;-0.80;99.90
54264;DHT22;40178;53.042;6.406;2023-02-15T04:25:22;-0.90;99.90
54264;DHT22;40178;53.042;6.406;2023-02-15T04:27:53;-0.90;99.90
54264;DHT22;40178;53.042;6.406;2023-02-15T04:30:22;-0.80;99.90
54264;DHT22;40178;53.042;6.406;2023-02-15T04:32:48;-0.80;99.90
54264;DHT22;40178;53.042;6.406;2023-02-15T04:35:14;-0.80;99.90
54264;DHT22;40178;53.042;6.406;2023-02-15T04:37:41;-0.80;99.90
54264;DHT22;40178;53.042;6.406;2023-02-15T04:40:08;-0.70;99.90
54264;DHT22;40178;53.042;6.406;2023-02-15T04:42:34;-0.70;99.90
54264;DHT22;40178;53.042;6.406;2023-02-15T04:45:00;-0.90;99.90
54264;DHT22;40178;53.042;6.406;2023-02-15T04:47:26;-0.90;99.90
54264;DHT22;40178;53.042;6.406;2023-02-15T04:49:52;-1.00;99.90
54264;DHT22;40178;53.042;6.406;2023-02-15T04:52:17;-1.10;99.90
54264;DHT22;40178;53.042;6.406;2023-02-15T04:54:44;-1.10;99.90
54264;DHT22;40178;53.042;6.406;2023-02-15T04:57:10;-1.20;99.90
54264;DHT22;40178;53.042;6.406;2023-02-15T04:59:35;-1.20;99.90
54264;DHT22;40178;53.042;6.406;2023-02-15T05:02:01;-1.20;99.90
54264;DHT22;40178;53.042;6.406;2023-02-15T05:04:27;-1.30;99.90
54264;DHT22;40178;53.042;6.406;2023-02-15T05:06:52;-1.20;99.90
54264;DHT22;40178;53.042;6.406;2023-02-15T05:09:18;-1.30;99.90
54264;DHT22;40178;53.042;6.406;2023-02-15T05:11:44;-1.30;99.90
54264;DHT22;40178;53.042;6.406;2023-02-15T05:14:09;-1.20;99.90
54264;DHT22;40178;53.042;6.406;2023-02-15T05:16:35;-1.30;99.90
54264;DHT22;40178;53.042;6.406;2023-02-15T05:19:01;-1.20;99.90
54264;DHT22;40178;53.042;6.406;2023-02-15T05:21:26;-1.10;99.90
54264;DHT22;40178;53.042;6.406;2023-02-15T05:23:52;-1.20;99.90
54264;DHT22;40178;53.042;6.406;2023-02-15T05:26:20;-0.90;99.90
54264;DHT22;40178;53.042;6.406;2023-02-15T05:29:05;-0.80;99.90
54264;DHT22;40178;53.042;6.406;2023-02-15T05:31:31;-0.80;99.90
54264;DHT22;40178;53.042;6.406;2023-02-15T05:33:57;-0.60;99.90
54264;DHT22;40178;53.042;6.406;2023-02-15T05:36:23;-0.60;99.90
54264;DHT22;40178;53.042;6.406;2023-02-15T05:38:49;-0.40;99.90
54264;DHT22;40178;53.042;6.406;2023-02-15T05:41:15;0.00;99.90
54264;DHT22;40178;53.042;6.406;2023-02-15T05:43:40;0.20;99.90
54264;DHT22;40178;53.042;6.406;2023-02-15T05:46:06;0.10;99.90
54264;DHT22;40178;53.042;6.406;2023-02-15T05:48:33;0.50;99.90
54264;DHT22;40178;53.042;6.406;2023-02-15T05:51:12;0.30;99.90
54264;DHT22;40178;53.042;6.406;2023-02-15T05:53:39;0.30;99.90
54264;DHT22;40178;53.042;6.406;2023-02-15T05:56:06;0.40;99.90
54264;DHT22;40178;53.042;6.406;2023-02-15T05:58:37;0.50;99.90
54264;DHT22;40178;53.042;6.406;2023-02-15T06:01:14;0.50;99.90
54264;DHT22;40178;53.042;6.406;2023-02-15T06:03:40;0.60;99.90
54264;DHT22;40178;53.042;6.406;2023-02-15T06:06:06;0.70;99.90
54264;DHT22;40178;53.042;6.406;2023-02-15T06:08:33;0.60;99.90
54264;DHT22;40178;53.042;6.406;2023-02-15T06:10:59;0.50;99.90
54264;DHT22;40178;53.042;6.406;2023-02-15T06:13:24;0.50;99.90
54264;DHT22;40178;53.042;6.406;2023-02-15T06:15:50;0.40;99.90
54264;DHT22;40178;53.042;6.406;2023-02-15T06:18:15;0.70;99.90
54264;DHT22;40178;53.042;6.406;2023-02-15T06:20:41;0.60;99.90
54264;DHT22;40178;53.042;6.406;2023-02-15T06:23:07;0.60;99.90
54264;DHT22;40178;53.042;6.406;2023-02-15T06:25:32;0.40;99.90
54264;DHT22;40178;53.042;6.406;2023-02-15T06:27:58;0.50;99.90
54264;DHT22;40178;53.042;6.406;2023-02-15T06:30:24;0.30;99.90
54264;DHT22;40178;53.042;6.406;2023-02-15T06:32:49;0.30;99.90
54264;DHT22;40178;53.042;6.406;2023-02-15T06:35:15;0.40;99.90
54264;DHT22;40178;53.042;6.406;2023-02-15T06:37:40;0.50;99.90
54264;DHT22;40178;53.042;6.406;2023-02-15T06:40:08;0.30;99.90
54264;DHT22;40178;53.042;6.406;2023-02-15T06:42:34;0.30;99.90
54264;DHT22;40178;53.042;6.406;2023-02-15T06:44:59;0.30;99.90
54264;DHT22;40178;53.042;6.406;2023-02-15T06:47:25;0.30;99.90
54264;DHT22;40178;53.042;6.406;2023-02-15T06:49:51;0.40;99.90
54264;DHT22;40178;53.042;6.406;2023-02-15T06:52:16;0.40;99.90
54264;DHT22;40178;53.042;6.406;2023-02-15T06:54:42;0.30;99.90
54264;DHT22;40178;53.042;6.406;2023-02-15T06:57:08;0.20;99.90
54264;DHT22;40178;53.042;6.406;2023-02-15T06:59:34;0.20;99.90
54264;DHT22;40178;53.042;6.406;2023-02-15T07:02:00;0.20;99.90
54264;DHT22;40178;53.042;6.406;2023-02-15T07:04:26;0.30;99.90
54264;DHT22;40178;53.042;6.406;2023-02-15T07:06:54;0.20;99.90
54264;DHT22;40178;53.042;6.406;2023-02-15T07:09:19;0.30;99.90
54264;DHT22;40178;53.042;6.406;2023-02-15T07:11:45;0.40;99.90
54264;DHT22;40178;53.042;6.406;2023-02-15T07:14:29;0.30;99.90
54264;DHT22;40178;53.042;6.406;2023-02-15T07:16:55;0.30;99.90
54264;DHT22;40178;53.042;6.406;2023-02-15T07:19:21;0.10;99.90
54264;DHT22;40178;53.042;6.406;2023-02-15T07:21:46;0.30;99.90
54264;DHT22;40178;53.042;6.406;2023-02-15T07:24:12;0.30;99.90
54264;DHT22;40178;53.042;6.406;2023-02-15T07:26:37;0.30;99.90
54264;DHT22;40178;53.042;6.406;2023-02-15T07:29:03;0.30;99.90
54264;DHT22;40178;53.042;6.406;2023-02-15T07:31:29;0.50;99.90
54264;DHT22;40178;53.042;6.406;2023-02-15T07:33:55;0.30;99.90
54264;DHT22;40178;53.042;6.406;2023-02-15T07:36:20;0.30;99.90
54264;DHT22;40178;53.042;6.406;2023-02-15T07:38:46;0.50;99.90
54264;DHT22;40178;53.042;6.406;2023-02-15T07:41:14;0.50;99.90
54264;DHT22;40178;53.042;6.406;2023-02-15T07:43:41;0.50;99.90
54264;DHT22;40178;53.042;6.406;2023-02-15T07:46:09;0.50;99.90
54264;DHT22;40178;53.042;6.406;2023-02-15T07:48:37;0.80;99.90
54264;DHT22;40178;53.042;6.406;2023-02-15T07:51:05;0.60;99.90
54264;DHT22;40178;53.042;6.406;2023-02-15T07:53:32;0.70;99.90
54264;DHT22;40178;53.042;6.406;2023-02-15T07:55:59;1.00;99.90
54264;DHT22;40178;53.042;6.406;2023-02-15T07:58:25;0.70;99.90
54264;DHT22;40178;53.042;6.406;2023-02-15T08:01:10;1.10;99.90
54264;DHT22;40178;53.042;6.406;2023-02-15T08:03:36;0.90;99.90
54264;DHT22;40178;53.042;6.406;2023-02-15T08:06:01;0.90;99.90
54264;DHT22;40178;53.042;6.406;2023-02-15T08:08:27;1.10;99.90
54264;DHT22;40178;53.042;6.406;2023-02-15T08:11:04;0.90;99.90
54264;DHT22;40178;53.042;6.406;2023-02-15T08:13:53;1.10;99.90
54264;DHT22;40178;53.042;6.406;2023-02-15T08:16:24;1.20;99.90
54264;DHT22;40178;53.042;6.406;2023-02-15T08:18:51;1.20;99.90
54264;DHT22;40178;53.042;6.406;2023-02-15T08:21:18;1.50;99.90
54264;DHT22;40178;53.042;6.406;2023-02-15T08:23:43;1.50;99.90
54264;DHT22;40178;53.042;6.406;2023-02-15T08:26:09;1.40;99.90
54264;DHT22;40178;53.042;6.406;2023-02-15T08:28:35;1.40;99.90
54264;DHT22;40178;53.042;6.406;2023-02-15T08:31:08;1.50;99.90
54264;DHT22;40178;53.042;6.406;2023-02-15T08:33:35;1.80;99.90
54264;DHT22;40178;53.042;6.406;2023-02-15T08:36:07;2.00;99.90
54264;DHT22;40178;53.042;6.406;2023-02-15T08:38:33;1.90;99.90
54264;DHT22;40178;53.042;6.406;2023-02-15T08:41:12;2.00;99.90
54264;DHT22;40178;53.042;6.406;2023-02-15T08:43:38;1.90;99.90
54264;DHT22;40178;53.042;6.406;2023-02-15T08:46:05;2.00;99.90
54264;DHT22;40178;53.042;6.406;2023-02-15T08:48:31;2.00;99.90
54264;DHT22;40178;53.042;6.406;2023-02-15T08:50:56;2.30;99.90
54264;DHT22;40178;53.042;6.406;2023-02-15T08:53:22;2.50;99.90
54264;DHT22;40178;53.042;6.406;2023-02-15T08:55:58;2.50;99.90
54264;DHT22;40178;53.042;6.406;2023-02-15T08:58:24;2.60;99.90
54264;DHT22;40178;53.042;6.406;2023-02-15T09:00:50;2.60;99.90
54264;DHT22;40178;53.042;6.406;2023-02-15T09:03:16;2.50;99.90
54264;DHT22;40178;53.042;6.406;2023-02-15T09:05:42;2.60;99.90
54264;DHT22;40178;53.042;6.406;2023-02-15T09:08:07;2.70;99.90
54264;DHT22;40178;53.042;6.406;2023-02-15T09:10:33;2.80;99.90
54264;DHT22;40178;53.042;6.406;2023-02-15T09:12:59;2.70;99.90
54264;DHT22;40178;53.042;6.406;2023-02-15T09:15:24;2.70;99.90
54264;DHT22;40178;53.042;6.406;2023-02-15T09:17:50;2.80;99.90
54264;DHT22;40178;53.042;6.406;2023-02-15T09:20:16;3.00;99.90
54264;DHT22;40178;53.042;6.406;2023-02-15T09:22:41;2.90;99.90
54264;DHT22;40178;53.042;6.406;2023-02-15T09:25:07;3.00;99.90
54264;DHT22;40178;53.042;6.406;2023-02-15T09:27:33;3.20;99.90
54264;DHT22;40178;53.042;6.406;2023-02-15T09:29:58;3.30;99.90
54264;DHT22;40178;53.042;6.406;2023-02-15T09:32:24;3.30;99.90
54264;DHT22;40178;53.042;6.406;2023-02-15T09:34:50;3.40;99.90
54264;DHT22;40178;53.042;6.406;2023-02-15T09:37:15;3.50;99.90
54264;DHT22;40178;53.042;6.406;2023-02-15T09:39:43;3.60;99.90
54264;DHT22;40178;53.042;6.406;2023-02-15T09:48:23;3.80;99.90
54264;DHT22;40178;53.042;6.406;2023-02-15T09:54:04;4.00;99.90
54264;DHT22;40178;53.042;6.406;2023-02-15T09:56:51;4.10;99.90
54264;DHT22;40178;53.042;6.406;2023-02-15T09:59:34;4.20;99.90
54264;DHT22;40178;53.042;6.406;2023-02-15T10:05:21;4.30;99.90
54264;DHT22;40178;53.042;6.406;2023-02-15T10:14:23;4.60;99.90
54264;DHT22;40178;53.042;6.406;2023-02-15T10:16:57;4.70;99.90
54264;DHT22;40178;53.042;6.406;2023-02-15T10:22:37;4.80;99.90
54264;DHT22;40178;53.042;6.406;2023-02-15T10:25:20;5.00;99.90
54264;DHT22;40178;53.042;6.406;2023-02-15T10:27:50;5.00;99.90
54264;DHT22;40178;53.042;6.406;2023-02-15T10:30:27;5.10;99.90
54264;DHT22;40178;53.042;6.406;2023-02-15T10:33:01;5.20;99.90
54264;DHT22;40178;53.042;6.406;2023-02-15T10:35:42;5.20;99.90
54264;DHT22;40178;53.042;6.406;2023-02-15T10:38:32;5.30;99.90
54264;DHT22;40178;53.042;6.406;2023-02-15T10:41:33;5.50;99.90
54264;DHT22;40178;53.042;6.406;2023-02-15T10:46:38;5.80;99.90
54264;DHT22;40178;53.042;6.406;2023-02-15T10:49:16;5.90;99.90
54264;DHT22;40178;53.042;6.406;2023-02-15T10:51:58;6.00;99.90
54264;DHT22;40178;53.042;6.406;2023-02-15T10:54:36;6.00;99.90
54264;DHT22;40178;53.042;6.406;2023-02-15T10:57:34;6.20;99.90
54264;DHT22;40178;53.042;6.406;2023-02-15T11:00:54;6.30;99.90
54264;DHT22;40178;53.042;6.406;2023-02-15T11:03:27;6.40;99.90
54264;DHT22;40178;53.042;6.406;2023-02-15T11:06:09;6.50;99.90
54264;DHT22;40178;53.042;6.406;2023-02-15T11:08:45;6.60;99.90
54264;DHT22;40178;53.042;6.406;2023-02-15T11:11:34;6.70;99.90
54264;DHT22;40178;53.042;6.406;2023-02-15T11:14:03;6.80;99.90
54264;DHT22;40178;53.042;6.406;2023-02-15T11:16:34;6.90;99.90
54264;DHT22;40178;53.042;6.406;2023-02-15T11:19:06;7.00;99.90
54264;DHT22;40178;53.042;6.406;2023-02-15T11:21:40;7.10;99.90
54264;DHT22;40178;53.042;6.406;2023-02-15T11:24:13;7.20;99.90
54264;DHT22;40178;53.042;6.406;2023-02-15T11:26:49;7.30;99.90
54264;DHT22;40178;53.042;6.406;2023-02-15T11:29:24;7.30;99.90
54264;DHT22;40178;53.042;6.406;2023-02-15T11:31:54;7.40;99.90
54264;DHT22;40178;53.042;6.406;2023-02-15T11:34:31;7.50;99.90
54264;DHT22;40178;53.042;6.406;2023-02-15T11:37:00;7.60;99.90
54264;DHT22;40178;53.042;6.406;2023-02-15T11:39:28;7.60;99.90
54264;DHT22;40178;53.042;6.406;2023-02-15T11:41:59;7.70;99.90
54264;DHT22;40178;53.042;6.406;2023-02-15T11:44:30;7.80;99.90
54264;DHT22;40178;53.042;6.406;2023-02-15T11:46:58;7.90;99.90
54264;DHT22;40178;53.042;6.406;2023-02-15T11:49:34;8.00;99.90
54264;DHT22;40178;53.042;6.406;2023-02-15T11:52:10;9.00;99.90
54264;DHT22;40178;53.042;6.406;2023-02-15T11:54:47;8.20;99.90
54264;DHT22;40178;53.042;6.406;2023-02-15T11:58:04;8.40;99.90
54264;DHT22;40178;53.042;6.406;2023-02-15T12:00:41;8.50;99.90
54264;DHT22;40178;53.042;6.406;2023-02-15T12:03:18;8.60;99.90
54264;DHT22;40178;53.042;6.406;2023-02-15T12:05:51;8.60;99.90
54264;DHT22;40178;53.042;6.406;2023-02-15T12:08:20;8.70;99.90
54264;DHT22;40178;53.042;6.406;2023-02-15T12:10:57;8.80;99.90
54264;DHT22;40178;53.042;6.406;2023-02-15T12:13:23;8.80;99.90
54264;DHT22;40178;53.042;6.406;2023-02-15T12:15:52;8.90;99.90
54264;DHT22;40178;53.042;6.406;2023-02-15T12:20:50;9.00;99.90
54264;DHT22;40178;53.042;6.406;2023-02-15T12:23:16;9.00;99.90
54264;DHT22;40178;53.042;6.406;2023-02-15T12:25:52;9.00;99.90
54264;DHT22;40178;53.042;6.406;2023-02-15T12:30:57;9.10;99.90
54264;DHT22;40178;53.042;6.406;2023-02-15T12:33:35;9.20;99.90
54264;DHT22;40178;53.042;6.406;2023-02-15T12:36:10;9.10;99.90
54264;DHT22;40178;53.042;6.406;2023-02-15T12:38:37;9.20;99.90
54264;DHT22;40178;53.042;6.406;2023-02-15T12:41:24;9.10;99.90
54264;DHT22;40178;53.042;6.406;2023-02-15T12:44:18;9.20;99.90
54264;DHT22;40178;53.042;6.406;2023-02-15T12:49:36;9.30;99.90
54264;DHT22;40178;53.042;6.406;2023-02-15T12:52:23;9.20;99.90
54264;DHT22;40178;53.042;6.406;2023-02-15T12:54:51;9.30;99.90
54264;DHT22;40178;53.042;6.406;2023-02-15T12:57:24;9.30;99.90
54264;DHT22;40178;53.042;6.406;2023-02-15T13:02:28;9.30;99.90
54264;DHT22;40178;53.042;6.406;2023-02-15T13:04:56;9.30;99.90
54264;DHT22;40178;53.042;6.406;2023-02-15T13:07:24;9.30;99.90
54264;DHT22;40178;53.042;6.406;2023-02-15T13:09:50;9.30;99.90
54264;DHT22;40178;53.042;6.406;2023-02-15T13:12:28;9.30;99.90
54264;DHT22;40178;53.042;6.406;2023-02-15T13:14:59;9.30;99.90
54264;DHT22;40178;53.042;6.406;2023-02-15T13:17:30;9.40;99.90
54264;DHT22;40178;53.042;6.406;2023-02-15T13:20:16;9.40;99.90
54264;DHT22;40178;53.042;6.406;2023-02-15T13:22:45;9.50;99.90
54264;DHT22;40178;53.042;6.406;2023-02-15T13:25:21;9.50;99.90
54264;DHT22;40178;53.042;6.406;2023-02-15T13:27:52;9.50;99.20
54264;DHT22;40178;53.042;6.406;2023-02-15T13:30:43;9.50;99.90
54264;DHT22;40178;53.042;6.406;2023-02-15T13:33:31;9.50;99.90
54264;DHT22;40178;53.042;6.406;2023-02-15T13:36:13;9.50;99.90
54264;DHT22;40178;53.042;6.406;2023-02-15T13:38:57;9.60;99.90
54264;DHT22;40178;53.042;6.406;2023-02-15T13:41:46;9.50;99.90
54264;DHT22;40178;53.042;6.406;2023-02-15T13:47:48;9.50;92.10
54264;DHT22;40178;53.042;6.406;2023-02-15T13:50:27;9.50;99.90
54264;DHT22;40178;53.042;6.406;2023-02-15T13:55:32;9.60;99.90
54264;DHT22;40178;53.042;6.406;2023-02-15T14:00:50;9.70;99.90
54264;DHT22;40178;53.042;6.406;2023-02-15T14:06:15;9.80;99.90
54264;DHT22;40178;53.042;6.406;2023-02-15T14:24:37;9.80;99.90
54264;DHT22;40178;53.042;6.406;2023-02-15T14:30:00;9.80;99.20
54264;DHT22;40178;53.042;6.406;2023-02-15T14:32:41;9.80;99.90
54264;DHT22;40178;53.042;6.406;2023-02-15T14:35:22;9.80;99.90
54264;DHT22;40178;53.042;6.406;2023-02-15T14:38:19;9.70;99.90
54264;DHT22;40178;53.042;6.406;2023-02-15T14:43:56;9.60;99.90
54264;DHT22;40178;53.042;6.406;2023-02-15T14:49:03;9.50;99.90
54264;DHT22;40178;53.042;6.406;2023-02-15T14:57:20;9.40;99.90
54264;DHT22;40178;53.042;6.406;2023-02-15T15:07:45;9.20;99.90
54264;DHT22;40178;53.042;6.406;2023-02-15T15:12:54;9.10;99.90
54264;DHT22;40178;53.042;6.406;2023-02-15T15:18:09;9.00;99.90
54264;DHT22;40178;53.042;6.406;2023-02-15T15:25:50;8.80;99.90
54264;DHT22;40178;53.042;6.406;2023-02-15T15:34:04;8.70;99.90
54264;DHT22;40178;53.042;6.406;2023-02-15T15:50:56;8.40;99.90
54264;DHT22;40178;53.042;6.406;2023-02-15T15:53:24;8.40;99.90
54264;DHT22;40178;53.042;6.406;2023-02-15T15:55:54;8.30;99.90
54264;DHT22;40178;53.042;6.406;2023-02-15T15:58:22;8.20;99.90
54264;DHT22;40178;53.042;6.406;2023-02-15T16:01:09;8.20;99.90
54264;DHT22;40178;53.042;6.406;2023-02-15T16:03:36;8.10;99.90
54264;DHT22;40178;53.042;6.406;2023-02-15T16:06:02;8.00;99.90
54264;DHT22;40178;53.042;6.406;2023-02-15T16:08:36;7.90;99.90
54264;DHT22;40178;53.042;6.406;2023-02-15T16:11:16;7.90;99.90
54264;DHT22;40178;53.042;6.406;2023-02-15T16:13:44;7.80;99.90
54264;DHT22;40178;53.042;6.406;2023-02-15T16:16:12;7.70;99.90
54264;DHT22;40178;53.042;6.406;2023-02-15T16:18:38;7.70;99.90
54264;DHT22;40178;53.042;6.406;2023-02-15T16:21:22;7.60;99.90
54264;DHT22;40178;53.042;6.406;2023-02-15T16:27:43;7.30;99.90
54264;DHT22;40178;53.042;6.406;2023-02-15T16:32:47;7.10;99.90
54264;DHT22;40178;53.042;6.406;2023-02-15T16:35:16;7.00;99.90
54264;DHT22;40178;53.042;6.406;2023-02-15T16:37:42;6.90;99.90
54264;DHT22;40178;53.042;6.406;2023-02-15T16:40:48;6.90;99.90
54264;DHT22;40178;53.042;6.406;2023-02-15T16:43:16;6.80;99.90
54264;DHT22;40178;53.042;6.406;2023-02-15T16:45:42;6.80;99.90
54264;DHT22;40178;53.042;6.406;2023-02-15T16:48:17;6.70;99.90
54264;DHT22;40178;53.042;6.406;2023-02-15T16:50:48;6.70;99.90
54264;DHT22;40178;53.042;6.406;2023-02-15T16:53:23;6.70;99.90
54264;DHT22;40178;53.042;6.406;2023-02-15T16:55:52;6.70;99.90
54264;DHT22;40178;53.042;6.406;2023-02-15T16:58:36;6.70;99.90
54264;DHT22;40178;53.042;6.406;2023-02-15T17:01:02;6.60;99.90
54264;DHT22;40178;53.042;6.406;2023-02-15T17:03:28;6.60;99.90
54264;DHT22;40178;53.042;6.406;2023-02-15T17:05:59;6.50;99.90
54264;DHT22;40178;53.042;6.406;2023-02-15T17:08:30;6.40;99.90
54264;DHT22;40178;53.042;6.406;2023-02-15T17:13:26;6.30;99.90
54264;DHT22;40178;53.042;6.406;2023-02-15T17:18:26;6.20;99.90
54264;DHT22;40178;53.042;6.406;2023-02-15T17:20:54;6.20;99.90
54264;DHT22;40178;53.042;6.406;2023-02-15T17:26:12;6.10;99.90
54264;DHT22;40178;53.042;6.406;2023-02-15T17:28:46;6.10;99.90
54264;DHT22;40178;53.042;6.406;2023-02-15T17:31:13;6.10;99.90
54264;DHT22;40178;53.042;6.406;2023-02-15T17:33:40;6.10;99.90
54264;DHT22;40178;53.042;6.406;2023-02-15T17:36:14;6.00;99.90
54264;DHT22;40178;53.042;6.406;2023-02-15T17:39:06;6.00;99.90
54264;DHT22;40178;53.042;6.406;2023-02-15T17:41:43;6.00;99.90
54264;DHT22;40178;53.042;6.406;2023-02-15T17:44:09;6.00;99.90
54264;DHT22;40178;53.042;6.406;2023-02-15T17:46:39;6.00;99.90
54264;DHT22;40178;53.042;6.406;2023-02-15T17:49:06;5.90;99.90
54264;DHT22;40178;53.042;6.406;2023-02-15T17:51:32;5.80;99.90
54264;DHT22;40178;53.042;6.406;2023-02-15T17:54:01;5.70;99.90
54264;DHT22;40178;53.042;6.406;2023-02-15T17:56:45;5.60;99.90
54264;DHT22;40178;53.042;6.406;2023-02-15T17:59:11;5.60;99.90
54264;DHT22;40178;53.042;6.406;2023-02-15T18:01:44;5.60;99.90
54264;DHT22;40178;53.042;6.406;2023-02-15T18:04:30;5.50;99.90
54264;DHT22;40178;53.042;6.406;2023-02-15T18:07:16;5.40;99.90
54264;DHT22;40178;53.042;6.406;2023-02-15T18:10:03;5.30;99.90
54264;DHT22;40178;53.042;6.406;2023-02-15T18:12:47;5.20;99.90
54264;DHT22;40178;53.042;6.406;2023-02-15T18:15:12;5.10;99.90
54264;DHT22;40178;53.042;6.406;2023-02-15T18:17:47;5.00;99.90
54264;DHT22;40178;53.042;6.406;2023-02-15T18:20:20;4.80;99.90
54264;DHT22;40178;53.042;6.406;2023-02-15T18:22:48;4.90;99.90
54264;DHT22;40178;53.042;6.406;2023-02-15T18:25:18;4.90;99.90
54264;DHT22;40178;53.042;6.406;2023-02-15T18:27:44;4.90;99.90
54264;DHT22;40178;53.042;6.406;2023-02-15T18:30:19;4.90;99.90
54264;DHT22;40178;53.042;6.406;2023-02-15T18:32:47;4.90;99.90
54264;DHT22;40178;53.042;6.406;2023-02-15T18:35:17;4.90;99.90